createdAt,value
2023-03-04T00:00:42.213Z,-0.99
2023-03-04T00:03:09.383Z,-0.98
2023-03-04T00:05:37.953Z,-1.03
2023-03-04T00:08:04.544Z,-1.00
2023-03-04T00:10:30.987Z,-0.97
2023-03-04T00:12:57.432Z,-1.02
2023-03-04T00:15:25.312Z,-1.13
2023-03-04T00:17:51.652Z,-1.13
2023-03-04T00:20:18.140Z,-1.24
2023-03-04T00:22:45.630Z,-1.32
2023-03-04T00:25:12.239Z,-1.40
2023-03-04T00:27:41.244Z,-1.33
2023-03-04T00:30:08.585Z,-1.34
2023-03-04T00:32:35.118Z,-1.28
2023-03-04T00:35:01.876Z,-1.29
2023-03-04T00:37:28.698Z,-1.33
2023-03-04T00:39:55.618Z,-1.38
2023-03-04T00:42:22.044Z,-1.34
2023-03-04T00:44:48.574Z,-1.36
2023-03-04T00:47:15.160Z,-1.36
2023-03-04T00:49:41.632Z,-1.43
2023-03-04T00:52:08.251Z,-1.43
2023-03-04T00:54:34.963Z,-1.43
2023-03-04T00:57:01.602Z,-1.44
2023-03-04T00:59:28.030Z,-1.44
2023-03-04T01:01:54.929Z,-1.51
2023-03-04T01:04:21.632Z,-1.49
2023-03-04T01:06:48.094Z,-1.54
2023-03-04T01:09:14.728Z,-1.56
2023-03-04T01:11:41.352Z,-1.59
2023-03-04T01:14:07.840Z,-1.58
2023-03-04T01:16:34.981Z,-1.62
2023-03-04T01:19:02.216Z,-1.68
2023-03-04T01:21:28.810Z,-1.72
2023-03-04T01:23:55.491Z,-1.74
2023-03-04T01:26:22.620Z,-1.79
2023-03-04T01:28:49.311Z,-1.84
2023-03-04T01:31:16.335Z,-1.90
2023-03-04T01:33:42.832Z,-1.91
2023-03-04T01:36:09.535Z,-1.87
2023-03-04T01:38:36.011Z,-1.88
2023-03-04T01:41:02.867Z,-1.92
2023-03-04T01:43:31.967Z,-1.94
2023-03-04T01:45:58.913Z,-1.97
2023-03-04T01:48:30.632Z,-2.00
2023-03-04T01:50:57.798Z,-1.99
2023-03-04T01:53:26.526Z,-2.01
2023-03-04T01:55:56.642Z,-2.02
2023-03-04T01:58:28.530Z,-2.03
2023-03-04T02:00:54.935Z,-2.03
2023-03-04T02:03:22.031Z,-2.03
2023-03-04T02:05:53.508Z,-2.05
2023-03-04T02:08:23.082Z,-2.06
2023-03-04T02:10:51.635Z,-2.05
2023-03-04T02:13:18.608Z,-2.01
2023-03-04T02:15:46.521Z,-2.03
2023-03-04T02:18:20.115Z,-1.97
2023-03-04T02:21:04.889Z,-2.00
2023-03-04T02:23:57.060Z,-2.07
2023-03-04T02:26:28.977Z,-2.11
2023-03-04T02:28:57.718Z,-2.16
2023-03-04T02:31:35.860Z,-2.18
2023-03-04T02:34:06.700Z,-2.22
2023-03-04T02:36:34.610Z,-2.25
2023-03-04T02:39:05.438Z,-2.28
2023-03-04T02:41:32.629Z,-2.32
2023-03-04T02:43:59.419Z,-2.27
2023-03-04T02:46:25.899Z,-2.28
2023-03-04T02:48:53.059Z,-2.31
2023-03-04T02:51:19.821Z,-2.32
2023-03-04T02:53:46.468Z,-2.34
2023-03-04T02:56:13.110Z,-2.35
2023-03-04T02:58:39.587Z,-2.39
2023-03-04T03:01:06.608Z,-2.39
2023-03-04T03:03:33.239Z,-2.41
2023-03-04T03:05:59.851Z,-2.42
2023-03-04T03:08:26.486Z,-2.40
2023-03-04T03:10:53.298Z,-2.41
2023-03-04T03:13:19.969Z,-2.39
2023-03-04T03:15:48.459Z,-2.42
2023-03-04T03:18:16.618Z,-2.45
2023-03-04T03:20:43.225Z,-2.44
2023-03-04T03:23:10.102Z,-2.46
2023-03-04T03:25:36.598Z,-2.52
2023-03-04T03:28:03.676Z,-2.57
2023-03-04T03:30:30.827Z,-2.63
2023-03-04T03:32:57.362Z,-2.56
2023-03-04T03:35:23.986Z,-2.55
2023-03-04T03:37:50.462Z,-2.56
2023-03-04T03:40:16.968Z,-2.57
2023-03-04T03:42:43.490Z,-2.54
2023-03-04T03:45:10.490Z,-2.58
2023-03-04T03:47:37.295Z,-2.58
2023-03-04T03:50:05.065Z,-2.62
2023-03-04T03:52:31.532Z,-2.63
2023-03-04T03:55:00.053Z,-2.64
2023-03-04T03:57:29.773Z,-2.64
2023-03-04T03:59:57.019Z,-2.70
2023-03-04T04:02:23.915Z,-2.71
2023-03-04T04:04:50.463Z,-2.71
2023-03-04T04:07:17.563Z,-2.68
2023-03-04T04:09:44.104Z,-2.75
2023-03-04T04:12:13.296Z,-2.79
2023-03-04T04:14:40.049Z,-2.79
2023-03-04T04:17:06.629Z,-2.85
2023-03-04T04:19:33.339Z,-2.92
2023-03-04T04:21:59.846Z,-2.94
2023-03-04T04:24:26.466Z,-3.00
2023-03-04T04:26:52.998Z,-2.99
2023-03-04T04:29:19.832Z,-3.03
2023-03-04T04:31:46.414Z,-2.99
2023-03-04T04:34:15.290Z,-2.97
2023-03-04T04:36:41.992Z,-3.00
2023-03-04T04:39:08.432Z,-2.98
2023-03-04T04:41:38.261Z,-3.03
2023-03-04T04:44:05.104Z,-3.05
2023-03-04T04:46:31.558Z,-3.09
2023-03-04T04:48:58.148Z,-3.10
2023-03-04T04:51:24.576Z,-3.13
2023-03-04T04:53:51.329Z,-3.18
2023-03-04T04:56:24.222Z,-3.21
2023-03-04T04:58:50.796Z,-3.25
2023-03-04T05:01:17.548Z,-3.30
2023-03-04T05:03:44.093Z,-3.25
2023-03-04T05:06:12.318Z,-3.28
2023-03-04T05:08:39.351Z,-3.28
2023-03-04T05:11:07.507Z,-3.26
2023-03-04T05:13:35.085Z,-3.27
2023-03-04T05:16:02.130Z,-3.34
2023-03-04T05:18:29.102Z,-3.32
2023-03-04T05:21:01.617Z,-3.32
2023-03-04T05:23:30.748Z,-3.32
2023-03-04T05:25:57.229Z,-3.37
2023-03-04T05:28:23.835Z,-3.39
2023-03-04T05:30:50.363Z,-3.44
2023-03-04T05:33:18.165Z,-3.39
2023-03-04T05:35:45.989Z,-3.36
2023-03-04T05:38:15.182Z,-3.39
2023-03-04T05:40:42.679Z,-3.42
2023-03-04T05:43:10.085Z,-3.38
2023-03-04T05:45:37.060Z,-3.40
2023-03-04T05:48:04.065Z,-3.49
2023-03-04T05:50:31.535Z,-3.47
2023-03-04T05:52:57.958Z,-3.47
2023-03-04T05:55:25.062Z,-3.50
2023-03-04T05:57:51.549Z,-3.55
2023-03-04T06:00:18.362Z,-3.52
2023-03-04T06:02:45.832Z,-3.53
2023-03-04T06:05:14.690Z,-3.56
2023-03-04T06:07:42.395Z,-3.53
2023-03-04T06:10:09.618Z,-3.55
2023-03-04T06:12:36.163Z,-3.61
2023-03-04T06:15:02.647Z,-3.55
2023-03-04T06:17:30.480Z,-3.57
2023-03-04T06:19:57.039Z,-3.51
2023-03-04T06:22:24.196Z,-3.51
2023-03-04T06:24:51.106Z,-3.47
2023-03-04T06:27:17.693Z,-3.40
2023-03-04T06:29:44.215Z,-3.39
2023-03-04T06:32:10.749Z,-3.42
2023-03-04T06:34:37.218Z,-3.46
2023-03-04T06:37:03.825Z,-3.47
2023-03-04T06:39:30.233Z,-3.49
2023-03-04T06:41:57.078Z,-3.48
2023-03-04T06:44:23.892Z,-3.39
2023-03-04T06:46:50.425Z,-3.32
2023-03-04T06:49:17.317Z,-3.24
2023-03-04T06:51:43.799Z,-3.14
2023-03-04T06:54:10.634Z,-3.09
2023-03-04T06:56:37.197Z,-3.06
2023-03-04T06:59:03.806Z,-2.96
2023-03-04T07:01:30.378Z,-2.80
2023-03-04T07:03:57.598Z,-2.61
2023-03-04T07:06:27.097Z,-2.65
2023-03-04T07:08:54.064Z,-2.61
2023-03-04T07:11:21.480Z,-2.56
2023-03-04T07:13:48.528Z,-2.58
2023-03-04T07:16:17.649Z,-2.51
2023-03-04T07:18:45.018Z,-2.28
2023-03-04T07:21:13.409Z,-2.13
2023-03-04T07:23:40.633Z,-2.08
2023-03-04T07:26:07.907Z,-1.90
2023-03-04T07:28:35.449Z,-1.95
2023-03-04T07:31:29.346Z,-1.99
2023-03-04T07:34:01.412Z,-2.05
2023-03-04T07:36:28.213Z,-1.95
2023-03-04T07:38:55.277Z,-1.91
2023-03-04T07:41:23.895Z,-2.08
2023-03-04T07:43:51.095Z,-2.18
2023-03-04T07:46:19.011Z,-2.16
2023-03-04T07:48:46.137Z,-2.18
2023-03-04T07:51:18.829Z,-2.25
2023-03-04T07:53:48.368Z,-2.02
2023-03-04T07:56:22.576Z,-2.11
2023-03-04T07:58:50.878Z,-2.12
2023-03-04T08:01:20.816Z,-1.90
2023-03-04T08:03:47.351Z,-1.83
2023-03-04T08:06:16.508Z,-1.67
2023-03-04T08:08:43.451Z,-1.40
2023-03-04T08:11:12.738Z,-1.41
2023-03-04T08:13:39.241Z,-1.30
2023-03-04T08:16:06.940Z,-1.19
2023-03-04T08:18:33.965Z,-1.25
2023-03-04T08:21:00.485Z,-1.20
2023-03-04T08:23:27.142Z,-0.84
2023-03-04T08:25:53.778Z,-0.91
2023-03-04T08:28:20.514Z,-0.75
2023-03-04T08:30:53.251Z,-0.91
2023-03-04T08:33:19.925Z,-0.71
2023-03-04T08:35:46.470Z,-0.49
2023-03-04T08:38:13.017Z,-0.34
2023-03-04T08:40:39.771Z,-0.38
2023-03-04T08:43:06.257Z,-0.41
2023-03-04T08:45:32.661Z,-0.57
2023-03-04T08:47:59.204Z,-0.49
2023-03-04T08:50:25.683Z,-0.53
2023-03-04T08:52:52.091Z,-0.51
2023-03-04T08:55:21.513Z,-0.56
2023-03-04T08:57:47.929Z,-0.63
2023-03-04T09:00:15.040Z,-0.57
2023-03-04T09:02:41.755Z,-0.65
2023-03-04T09:05:09.898Z,-0.55
2023-03-04T09:07:36.462Z,-0.51
2023-03-04T09:10:04.206Z,-0.48
2023-03-04T09:12:30.987Z,-0.33
2023-03-04T09:15:10.145Z,-0.36
2023-03-04T09:17:37.997Z,-0.44
2023-03-04T09:20:05.525Z,-0.48
2023-03-04T09:22:32.034Z,-0.41
2023-03-04T09:24:58.818Z,-0.27
2023-03-04T09:27:25.407Z,-0.11
2023-03-04T09:29:51.861Z,-0.27
2023-03-04T09:32:18.706Z,-0.06
2023-03-04T09:34:45.196Z,-0.15
2023-03-04T09:37:11.818Z,-0.27
2023-03-04T09:39:38.291Z,-0.22
2023-03-04T09:42:07.905Z,-0.11
2023-03-04T09:44:41.059Z,-0.01
2023-03-04T09:47:12.739Z,0.13
2023-03-04T09:49:42.247Z,0.16
2023-03-04T09:52:22.102Z,0.21
2023-03-04T09:55:12.825Z,0.34
2023-03-04T09:57:54.554Z,0.49
2023-03-04T10:00:32.685Z,0.50
2023-03-04T10:03:16.647Z,0.81
2023-03-04T10:06:01.242Z,0.75
2023-03-04T10:08:33.673Z,0.65
2023-03-04T10:11:01.806Z,0.85
2023-03-04T10:13:41.005Z,0.63
2023-03-04T10:16:11.996Z,0.66
2023-03-04T10:18:49.767Z,0.89
2023-03-04T10:21:51.489Z,1.00
2023-03-04T10:24:20.674Z,1.02
2023-03-04T10:26:51.655Z,0.97
2023-03-04T10:29:19.436Z,0.86
2023-03-04T10:31:46.679Z,0.97
2023-03-04T10:34:15.245Z,0.85
2023-03-04T10:36:56.572Z,0.75
2023-03-04T10:39:31.373Z,1.00
2023-03-04T10:42:01.590Z,1.09
2023-03-04T10:44:30.048Z,0.91
2023-03-04T10:46:58.508Z,1.03
2023-03-04T10:49:26.891Z,1.07
2023-03-04T10:51:56.515Z,1.06
2023-03-04T10:54:23.901Z,0.98
2023-03-04T10:56:57.429Z,1.15
2023-03-04T10:59:48.827Z,1.22
2023-03-04T11:02:38.331Z,1.18
2023-03-04T11:05:21.861Z,1.28
2023-03-04T11:07:57.034Z,1.42
2023-03-04T11:10:32.194Z,1.52
2023-03-04T11:13:03.543Z,1.54
2023-03-04T11:15:53.531Z,1.73
2023-03-04T11:18:33.975Z,2.19
2023-03-04T11:21:01.407Z,2.36
2023-03-04T11:23:39.973Z,2.38
2023-03-04T11:26:16.417Z,2.34
2023-03-04T11:28:51.982Z,2.31
2023-03-04T11:31:40.841Z,2.13
2023-03-04T11:34:30.156Z,2.23
2023-03-04T11:37:16.971Z,2.33
2023-03-04T11:39:57.399Z,2.31
2023-03-04T11:42:49.363Z,2.38
2023-03-04T11:45:29.233Z,2.41
2023-03-04T11:48:17.755Z,2.43
2023-03-04T11:50:49.950Z,2.35
2023-03-04T11:53:38.329Z,2.04
2023-03-04T11:56:22.991Z,2.11
2023-03-04T11:59:26.384Z,2.28
2023-03-04T12:02:14.703Z,2.06
2023-03-04T12:04:49.722Z,2.15
2023-03-04T12:07:59.085Z,2.20
2023-03-04T12:10:38.643Z,2.34
2023-03-04T12:13:29.593Z,2.08
2023-03-04T12:16:19.674Z,2.18
2023-03-04T12:18:55.280Z,2.29
2023-03-04T12:21:27.387Z,1.94
2023-03-04T12:24:27.396Z,2.11
2023-03-04T12:27:20.250Z,2.19
2023-03-04T12:29:59.846Z,2.17
2023-03-04T12:33:08.961Z,2.10
2023-03-04T12:35:53.196Z,2.24
2023-03-04T12:38:25.723Z,2.18
2023-03-04T12:41:14.278Z,2.08
2023-03-04T12:44:14.383Z,2.17
2023-03-04T12:47:02.634Z,2.28
2023-03-04T12:49:51.248Z,2.41
2023-03-04T12:53:00.101Z,2.39
2023-03-04T12:55:37.982Z,2.13
2023-03-04T12:58:26.048Z,1.87
2023-03-04T13:00:59.475Z,2.14
2023-03-04T13:03:32.198Z,2.25
2023-03-04T13:06:11.417Z,2.43
2023-03-04T13:08:46.005Z,2.44
2023-03-04T13:11:27.441Z,2.27
2023-03-04T13:14:12.305Z,2.53
2023-03-04T13:16:59.741Z,2.54
2023-03-04T13:19:50.861Z,2.68
2023-03-04T13:22:27.298Z,2.38
2023-03-04T13:24:54.881Z,2.27
2023-03-04T13:28:03.199Z,2.41
2023-03-04T13:30:32.778Z,2.23
2023-03-04T13:33:22.087Z,2.30
2023-03-04T13:35:55.061Z,2.25
2023-03-04T13:38:27.648Z,2.23
2023-03-04T13:41:00.204Z,2.38
2023-03-04T13:43:36.463Z,2.35
2023-03-04T13:46:18.080Z,2.37
2023-03-04T13:48:50.486Z,2.29
2023-03-04T13:51:28.992Z,2.12
2023-03-04T13:53:59.366Z,2.00
2023-03-04T13:56:28.139Z,1.90
2023-03-04T13:59:24.345Z,2.08
2023-03-04T14:02:13.139Z,2.00
2023-03-04T14:04:42.668Z,2.13
2023-03-04T14:07:30.139Z,2.18
2023-03-04T14:10:18.096Z,2.04
2023-03-04T14:12:59.099Z,2.01
2023-03-04T14:15:31.594Z,1.92
2023-03-04T14:18:01.182Z,1.75
2023-03-04T14:20:31.119Z,1.77
2023-03-04T14:22:59.152Z,1.69
2023-03-04T14:25:31.882Z,1.73
2023-03-04T14:28:17.344Z,1.89
2023-03-04T14:30:53.132Z,1.75
2023-03-04T14:33:23.145Z,1.85
2023-03-04T14:35:53.285Z,1.91
2023-03-04T14:38:42.161Z,1.85
2023-03-04T14:41:21.085Z,1.92
2023-03-04T14:43:57.703Z,1.75
2023-03-04T14:46:30.609Z,1.87
2023-03-04T14:48:58.127Z,1.87
2023-03-04T14:51:48.912Z,1.77
2023-03-04T14:54:59.195Z,1.83
2023-03-04T14:57:28.811Z,1.91
2023-03-04T14:59:55.908Z,1.91
2023-03-04T15:02:37.178Z,1.93
2023-03-04T15:05:17.782Z,1.95
2023-03-04T15:07:51.904Z,1.97
2023-03-04T15:10:23.215Z,2.02
2023-03-04T15:12:55.802Z,2.02
2023-03-04T15:15:39.242Z,2.00
2023-03-04T15:18:18.137Z,1.92
2023-03-04T15:20:53.450Z,1.99
2023-03-04T15:23:20.086Z,1.84
2023-03-04T15:25:46.543Z,1.87
2023-03-04T15:28:18.062Z,1.83
2023-03-04T15:30:44.635Z,1.77
2023-03-04T15:33:12.123Z,1.63
2023-03-04T15:35:39.752Z,1.71
2023-03-04T15:38:07.304Z,1.72
2023-03-04T15:40:36.946Z,1.73
2023-03-04T15:43:05.686Z,1.69
2023-03-04T15:45:37.579Z,1.69
2023-03-04T15:48:10.036Z,1.68
2023-03-04T15:50:38.891Z,1.65
2023-03-04T15:53:10.462Z,1.79
2023-03-04T15:55:37.212Z,1.77
2023-03-04T15:58:03.887Z,1.68
2023-03-04T16:00:30.418Z,1.72
2023-03-04T16:02:56.965Z,1.71
2023-03-04T16:05:23.881Z,1.72
2023-03-04T16:07:51.252Z,1.69
2023-03-04T16:10:27.052Z,1.58
2023-03-04T16:12:54.438Z,1.55
2023-03-04T16:15:26.324Z,1.62
2023-03-04T16:17:53.678Z,1.64
2023-03-04T16:20:23.215Z,1.61
2023-03-04T16:22:53.123Z,1.62
2023-03-04T16:25:20.953Z,1.54
2023-03-04T16:27:47.420Z,1.54
2023-03-04T16:30:25.157Z,1.55
2023-03-04T16:32:51.546Z,1.63
2023-03-04T16:35:19.742Z,1.64
2023-03-04T16:37:46.793Z,1.59
2023-03-04T16:40:19.281Z,1.56
2023-03-04T16:42:45.721Z,1.58
2023-03-04T16:45:20.097Z,1.55
2023-03-04T16:47:46.989Z,1.45
2023-03-04T16:50:25.753Z,1.46
2023-03-04T16:52:53.155Z,1.50
2023-03-04T16:55:26.459Z,1.48
2023-03-04T16:57:54.467Z,1.46
2023-03-04T17:00:22.871Z,1.53
2023-03-04T17:02:58.531Z,1.58
2023-03-04T17:05:28.389Z,1.56
2023-03-04T17:07:54.836Z,1.53
2023-03-04T17:10:22.369Z,1.52
2023-03-04T17:12:49.418Z,1.54
2023-03-04T17:15:16.163Z,1.53
2023-03-04T17:17:43.914Z,1.54
2023-03-04T17:20:16.151Z,1.56
2023-03-04T17:22:43.261Z,1.52
2023-03-04T17:25:10.962Z,1.54
2023-03-04T17:27:37.902Z,1.52
2023-03-04T17:30:06.282Z,1.54
2023-03-04T17:32:33.251Z,1.55
2023-03-04T17:35:01.314Z,1.55
2023-03-04T17:37:27.809Z,1.61
2023-03-04T17:39:54.648Z,1.57
2023-03-04T17:42:21.158Z,1.57
2023-03-04T17:44:48.086Z,1.57
2023-03-04T17:47:14.667Z,1.56
2023-03-04T17:49:41.388Z,1.57
2023-03-04T17:52:07.953Z,1.54
2023-03-04T17:54:34.391Z,1.52
2023-03-04T17:57:00.929Z,1.53
2023-03-04T17:59:27.745Z,1.55
2023-03-04T18:01:54.522Z,1.54
2023-03-04T18:04:22.194Z,1.53
2023-03-04T18:06:48.690Z,1.50
2023-03-04T18:09:15.444Z,1.54
2023-03-04T18:11:42.474Z,1.50
2023-03-04T18:14:09.002Z,1.48
2023-03-04T18:16:35.454Z,1.44
2023-03-04T18:19:02.117Z,1.44
2023-03-04T18:21:29.832Z,1.44
2023-03-04T18:23:57.220Z,1.44
2023-03-04T18:26:24.244Z,1.42
2023-03-04T18:28:52.649Z,1.45
2023-03-04T18:31:21.371Z,1.42
2023-03-04T18:33:51.982Z,1.40
2023-03-04T18:36:19.253Z,1.38
2023-03-04T18:38:45.899Z,1.37
2023-03-04T18:41:14.451Z,1.35
2023-03-04T18:43:41.262Z,1.37
2023-03-04T18:46:18.054Z,1.34
2023-03-04T18:48:52.442Z,1.41
2023-03-04T18:51:19.880Z,1.36
2023-03-04T18:53:46.314Z,1.44
2023-03-04T18:56:24.971Z,1.45
2023-03-04T18:58:51.895Z,1.48
2023-03-04T19:01:22.041Z,1.47
2023-03-04T19:03:48.870Z,1.45
2023-03-04T19:06:15.397Z,1.45
2023-03-04T19:08:41.885Z,1.44
2023-03-04T19:11:08.571Z,1.45
2023-03-04T19:13:35.147Z,1.43
2023-03-04T19:16:02.080Z,1.44
2023-03-04T19:18:29.270Z,1.48
2023-03-04T19:20:58.574Z,1.47
2023-03-04T19:23:24.991Z,1.45
2023-03-04T19:25:53.261Z,1.44
2023-03-04T19:28:19.726Z,1.45
2023-03-04T19:30:46.256Z,1.47
2023-03-04T19:33:12.745Z,1.46
2023-03-04T19:35:44.989Z,1.52
2023-03-04T19:38:12.596Z,1.54
2023-03-04T19:40:43.243Z,1.52
2023-03-04T19:43:09.852Z,1.49
2023-03-04T19:45:36.831Z,1.51
2023-03-04T19:48:07.306Z,1.49
2023-03-04T19:50:34.120Z,1.52
2023-03-04T19:53:03.335Z,1.47
2023-03-04T19:55:29.806Z,1.48
2023-03-04T19:57:56.220Z,1.49
2023-03-04T20:00:24.334Z,1.54
2023-03-04T20:02:50.845Z,1.55
2023-03-04T20:05:19.673Z,1.58
2023-03-04T20:07:48.940Z,1.50
2023-03-04T20:10:16.333Z,1.43
2023-03-04T20:12:43.307Z,1.42
2023-03-04T20:15:10.808Z,1.41
2023-03-04T20:17:37.778Z,1.39
2023-03-04T20:20:05.119Z,1.37
2023-03-04T20:22:31.592Z,1.37
2023-03-04T20:24:57.966Z,1.45
2023-03-04T20:27:24.872Z,1.50
2023-03-04T20:29:51.288Z,1.53
2023-03-04T20:32:17.932Z,1.56
2023-03-04T20:34:44.814Z,1.60
2023-03-04T20:37:13.608Z,1.65
2023-03-04T20:39:41.022Z,1.67
2023-03-04T20:42:07.462Z,1.68
2023-03-04T20:44:33.849Z,1.70
2023-03-04T20:47:00.331Z,1.70
2023-03-04T20:49:28.022Z,1.71
2023-03-04T20:51:56.986Z,1.69
2023-03-04T20:54:23.927Z,1.69
2023-03-04T20:56:50.577Z,1.66
2023-03-04T20:59:17.631Z,1.68
2023-03-04T21:01:45.615Z,1.69
2023-03-04T21:04:12.509Z,1.71
2023-03-04T21:06:39.875Z,1.70
2023-03-04T21:09:11.639Z,1.70
2023-03-04T21:11:38.584Z,1.70
2023-03-04T21:14:19.555Z,1.70
2023-03-04T21:16:46.469Z,1.69
2023-03-04T21:19:17.036Z,1.71
2023-03-04T21:21:43.625Z,1.70
2023-03-04T21:24:14.283Z,1.64
2023-03-04T21:26:41.129Z,1.59
2023-03-04T21:29:08.631Z,1.61
2023-03-04T21:31:40.079Z,1.64
2023-03-04T21:34:18.038Z,1.66
2023-03-04T21:36:44.674Z,1.60
2023-03-04T21:39:17.972Z,1.56
2023-03-04T21:41:45.131Z,1.52
2023-03-04T21:44:22.606Z,1.56
2023-03-04T21:47:00.003Z,1.61
2023-03-04T21:49:28.214Z,1.64
2023-03-04T21:51:54.815Z,1.67
2023-03-04T21:54:21.438Z,1.64
2023-03-04T21:56:48.539Z,1.63
2023-03-04T21:59:15.025Z,1.65
2023-03-04T22:01:42.325Z,1.67
2023-03-04T22:04:09.076Z,1.70
2023-03-04T22:06:35.893Z,1.71
2023-03-04T22:09:03.908Z,1.70
2023-03-04T22:11:33.798Z,1.72
2023-03-04T22:14:02.300Z,1.70
2023-03-04T22:16:49.023Z,1.69
2023-03-04T22:19:19.938Z,1.70
2023-03-04T22:21:48.867Z,1.68
2023-03-04T22:24:18.391Z,1.66
2023-03-04T22:26:45.105Z,1.67
2023-03-04T22:29:12.593Z,1.64
2023-03-04T22:31:40.475Z,1.64
2023-03-04T22:34:12.966Z,1.61
2023-03-04T22:36:44.450Z,1.57
2023-03-04T22:39:13.711Z,1.58
2023-03-04T22:41:40.911Z,1.60
2023-03-04T22:44:08.725Z,1.63
2023-03-04T22:46:39.099Z,1.65
2023-03-04T22:49:07.737Z,1.66
2023-03-04T22:51:34.083Z,1.67
2023-03-04T22:54:00.618Z,1.68
2023-03-04T22:56:27.206Z,1.71
2023-03-04T22:58:54.639Z,1.65
2023-03-04T23:01:21.174Z,1.67
2023-03-04T23:03:51.082Z,1.64
2023-03-04T23:06:20.632Z,1.62
2023-03-04T23:08:49.328Z,1.66
2023-03-04T23:11:23.783Z,1.66
2023-03-04T23:13:50.574Z,1.62
2023-03-04T23:16:18.166Z,1.66
2023-03-04T23:18:45.742Z,1.69
2023-03-04T23:21:18.665Z,1.68
2023-03-04T23:23:45.583Z,1.65
2023-03-04T23:26:28.053Z,1.65
2023-03-04T23:28:58.033Z,1.65
2023-03-04T23:31:24.789Z,1.67
2023-03-04T23:33:52.520Z,1.68
2023-03-04T23:36:19.374Z,1.65
2023-03-04T23:38:49.822Z,1.61
2023-03-04T23:41:21.944Z,1.63
2023-03-04T23:43:49.343Z,1.63
2023-03-04T23:46:16.170Z,1.65
2023-03-04T23:48:44.080Z,1.62
2023-03-04T23:51:10.643Z,1.64
2023-03-04T23:53:37.227Z,1.60
2023-03-04T23:56:03.832Z,1.58
2023-03-04T23:58:30.216Z,1.62
